sensor_id;sensor_type;location;lat;lon;timestamp;P1;durP1;ratioP1;P2;durP2;ratioP2
79401;SDS011;68857;47.916;106.940;2023-08-21T00:00:36;2.85;;;1.60;;
79401;SDS011;68857;47.916;106.940;2023-08-21T00:03:02;3.08;;;1.42;;
79401;SDS011;68857;47.916;106.940;2023-08-21T00:05:29;3.05;;;1.67;;
79401;SDS011;68857;47.916;106.940;2023-08-21T00:07:55;4.90;;;1.95;;
79401;SDS011;68857;47.916;106.940;2023-08-21T00:10:22;2.58;;;1.40;;
79401;SDS011;68857;47.916;106.940;2023-08-21T00:12:48;3.42;;;1.15;;
79401;SDS011;68857;47.916;106.940;2023-08-21T00:15:15;4.68;;;1.58;;
79401;SDS011;68857;47.916;106.940;2023-08-21T00:17:42;4.35;;;1.45;;
79401;SDS011;68857;47.916;106.940;2023-08-21T00:20:08;2.58;;;1.10;;
79401;SDS011;68857;47.916;106.940;2023-08-21T00:22:35;4.18;;;2.83;;
79401;SDS011;68857;47.916;106.940;2023-08-21T00:25:02;2.53;;;1.67;;
79401;SDS011;68857;47.916;106.940;2023-08-21T00:27:29;9.55;;;2.35;;
79401;SDS011;68857;47.916;106.940;2023-08-21T00:29:56;6.45;;;2.13;;
79401;SDS011;68857;47.916;106.940;2023-08-21T00:32:23;6.13;;;1.90;;
79401;SDS011;68857;47.916;106.940;2023-08-21T00:34:50;5.85;;;2.13;;
79401;SDS011;68857;47.916;106.940;2023-08-21T00:37:16;8.23;;;2.50;;
79401;SDS011;68857;47.916;106.940;2023-08-21T00:39:43;6.68;;;2.25;;
79401;SDS011;68857;47.916;106.940;2023-08-21T00:42:09;4.47;;;2.58;;
79401;SDS011;68857;47.916;106.940;2023-08-21T00:44:36;3.53;;;1.77;;
79401;SDS011;68857;47.916;106.940;2023-08-21T00:47:02;3.70;;;1.98;;
79401;SDS011;68857;47.916;106.940;2023-08-21T00:49:29;6.68;;;2.50;;
79401;SDS011;68857;47.916;106.940;2023-08-21T00:51:56;6.10;;;2.45;;
79401;SDS011;68857;47.916;106.940;2023-08-21T00:54:23;5.05;;;2.20;;
79401;SDS011;68857;47.916;106.940;2023-08-21T00:56:49;5.10;;;2.45;;
79401;SDS011;68857;47.916;106.940;2023-08-21T00:59:18;4.18;;;2.53;;
79401;SDS011;68857;47.916;106.940;2023-08-21T01:01:45;11.50;;;2.08;;
79401;SDS011;68857;47.916;106.940;2023-08-21T01:04:11;6.93;;;2.80;;
79401;SDS011;68857;47.916;106.940;2023-08-21T01:06:38;4.82;;;2.03;;
79401;SDS011;68857;47.916;106.940;2023-08-21T01:11:50;5.25;;;2.22;;
79401;SDS011;68857;47.916;106.940;2023-08-21T01:16:47;5.97;;;2.65;;
79401;SDS011;68857;47.916;106.940;2023-08-21T01:19:36;5.03;;;2.30;;
79401;SDS011;68857;47.916;106.940;2023-08-21T01:22:01;7.03;;;2.97;;
79401;SDS011;68857;47.916;106.940;2023-08-21T01:24:28;6.40;;;3.28;;
79401;SDS011;68857;47.916;106.940;2023-08-21T01:26:55;6.88;;;3.30;;
79401;SDS011;68857;47.916;106.940;2023-08-21T01:29:21;9.05;;;3.25;;
79401;SDS011;68857;47.916;106.940;2023-08-21T01:34:30;6.20;;;2.17;;
79401;SDS011;68857;47.916;106.940;2023-08-21T01:36:59;9.85;;;3.63;;
79401;SDS011;68857;47.916;106.940;2023-08-21T01:39:25;12.50;;;3.22;;
79401;SDS011;68857;47.916;106.940;2023-08-21T01:41:52;6.28;;;2.70;;
79401;SDS011;68857;47.916;106.940;2023-08-21T01:44:19;7.93;;;3.50;;
79401;SDS011;68857;47.916;106.940;2023-08-21T01:46:45;9.93;;;3.40;;
79401;SDS011;68857;47.916;106.940;2023-08-21T01:49:12;9.10;;;3.42;;
79401;SDS011;68857;47.916;106.940;2023-08-21T01:51:38;6.38;;;3.53;;
79401;SDS011;68857;47.916;106.940;2023-08-21T01:54:05;7.35;;;3.55;;
79401;SDS011;68857;47.916;106.940;2023-08-21T01:56:31;9.13;;;3.47;;
79401;SDS011;68857;47.916;106.940;2023-08-21T01:58:58;8.80;;;3.67;;
79401;SDS011;68857;47.916;106.940;2023-08-21T02:01:25;5.90;;;3.65;;
79401;SDS011;68857;47.916;106.940;2023-08-21T02:03:51;8.20;;;3.95;;
79401;SDS011;68857;47.916;106.940;2023-08-21T02:06:18;12.23;;;4.78;;
79401;SDS011;68857;47.916;106.940;2023-08-21T02:08:44;12.88;;;4.63;;
79401;SDS011;68857;47.916;106.940;2023-08-21T02:11:11;9.57;;;4.00;;
79401;SDS011;68857;47.916;106.940;2023-08-21T02:13:38;10.57;;;3.95;;
79401;SDS011;68857;47.916;106.940;2023-08-21T02:16:04;13.80;;;8.50;;
79401;SDS011;68857;47.916;106.940;2023-08-21T02:18:31;12.63;;;3.97;;
79401;SDS011;68857;47.916;106.940;2023-08-21T02:20:59;12.90;;;4.18;;
79401;SDS011;68857;47.916;106.940;2023-08-21T02:23:26;9.35;;;3.78;;
79401;SDS011;68857;47.916;106.940;2023-08-21T02:25:54;7.95;;;3.65;;
79401;SDS011;68857;47.916;106.940;2023-08-21T02:28:20;9.98;;;4.13;;
79401;SDS011;68857;47.916;106.940;2023-08-21T02:30:47;12.25;;;4.00;;
79401;SDS011;68857;47.916;106.940;2023-08-21T02:33:13;9.90;;;4.18;;
79401;SDS011;68857;47.916;106.940;2023-08-21T02:35:40;10.55;;;4.05;;
79401;SDS011;68857;47.916;106.940;2023-08-21T02:38:07;11.73;;;4.00;;
79401;SDS011;68857;47.916;106.940;2023-08-21T02:40:33;11.35;;;3.92;;
79401;SDS011;68857;47.916;106.940;2023-08-21T02:43:00;13.30;;;3.85;;
79401;SDS011;68857;47.916;106.940;2023-08-21T02:45:27;9.85;;;3.83;;
79401;SDS011;68857;47.916;106.940;2023-08-21T02:47:54;10.70;;;4.22;;
79401;SDS011;68857;47.916;106.940;2023-08-21T02:50:20;10.38;;;3.78;;
79401;SDS011;68857;47.916;106.940;2023-08-21T02:52:47;11.52;;;4.20;;
79401;SDS011;68857;47.916;106.940;2023-08-21T02:55:13;9.40;;;3.58;;
79401;SDS011;68857;47.916;106.940;2023-08-21T02:57:41;8.18;;;3.83;;
79401;SDS011;68857;47.916;106.940;2023-08-21T03:00:08;9.05;;;3.28;;
79401;SDS011;68857;47.916;106.940;2023-08-21T03:02:35;9.80;;;4.55;;
79401;SDS011;68857;47.916;106.940;2023-08-21T03:05:01;11.90;;;5.47;;
79401;SDS011;68857;47.916;106.940;2023-08-21T03:07:28;10.05;;;3.90;;
79401;SDS011;68857;47.916;106.940;2023-08-21T03:09:54;9.43;;;4.60;;
79401;SDS011;68857;47.916;106.940;2023-08-21T03:12:20;14.85;;;3.50;;
79401;SDS011;68857;47.916;106.940;2023-08-21T03:14:47;8.90;;;3.78;;
79401;SDS011;68857;47.916;106.940;2023-08-21T03:17:13;7.40;;;3.55;;
79401;SDS011;68857;47.916;106.940;2023-08-21T03:19:40;5.75;;;3.83;;
79401;SDS011;68857;47.916;106.940;2023-08-21T03:22:06;6.53;;;3.53;;
79401;SDS011;68857;47.916;106.940;2023-08-21T03:24:33;4.60;;;2.92;;
79401;SDS011;68857;47.916;106.940;2023-08-21T03:26:59;7.80;;;3.63;;
79401;SDS011;68857;47.916;106.940;2023-08-21T03:29:26;6.45;;;3.15;;
79401;SDS011;68857;47.916;106.940;2023-08-21T03:31:53;8.52;;;2.88;;
79401;SDS011;68857;47.916;106.940;2023-08-21T03:34:22;5.97;;;3.53;;
79401;SDS011;68857;47.916;106.940;2023-08-21T03:36:49;7.97;;;3.55;;
79401;SDS011;68857;47.916;106.940;2023-08-21T03:39:16;4.65;;;3.33;;
79401;SDS011;68857;47.916;106.940;2023-08-21T03:41:42;8.30;;;3.35;;
79401;SDS011;68857;47.916;106.940;2023-08-21T03:44:09;6.20;;;3.15;;
79401;SDS011;68857;47.916;106.940;2023-08-21T03:46:35;6.90;;;3.42;;
79401;SDS011;68857;47.916;106.940;2023-08-21T03:49:02;7.82;;;3.58;;
79401;SDS011;68857;47.916;106.940;2023-08-21T03:51:29;9.15;;;3.50;;
79401;SDS011;68857;47.916;106.940;2023-08-21T03:53:55;7.28;;;3.88;;
79401;SDS011;68857;47.916;106.940;2023-08-21T03:56:22;9.35;;;3.75;;
79401;SDS011;68857;47.916;106.940;2023-08-21T03:58:48;10.70;;;4.05;;
79401;SDS011;68857;47.916;106.940;2023-08-21T04:01:15;7.93;;;3.63;;
79401;SDS011;68857;47.916;106.940;2023-08-21T04:03:42;10.82;;;4.40;;
79401;SDS011;68857;47.916;106.940;2023-08-21T04:06:08;8.43;;;3.92;;
79401;SDS011;68857;47.916;106.940;2023-08-21T04:08:35;8.32;;;4.25;;
79401;SDS011;68857;47.916;106.940;2023-08-21T04:11:01;9.02;;;4.20;;
79401;SDS011;68857;47.916;106.940;2023-08-21T04:13:28;18.17;;;4.38;;
79401;SDS011;68857;47.916;106.940;2023-08-21T04:15:54;10.38;;;5.00;;
79401;SDS011;68857;47.916;106.940;2023-08-21T04:18:22;12.18;;;4.47;;
79401;SDS011;68857;47.916;106.940;2023-08-21T04:20:48;11.63;;;5.82;;
79401;SDS011;68857;47.916;106.940;2023-08-21T04:23:15;15.50;;;5.30;;
79401;SDS011;68857;47.916;106.940;2023-08-21T04:25:42;9.93;;;4.40;;
79401;SDS011;68857;47.916;106.940;2023-08-21T04:28:08;8.55;;;5.28;;
79401;SDS011;68857;47.916;106.940;2023-08-21T04:30:35;12.75;;;4.78;;
79401;SDS011;68857;47.916;106.940;2023-08-21T04:33:02;10.00;;;4.82;;
79401;SDS011;68857;47.916;106.940;2023-08-21T04:35:28;8.45;;;4.53;;
79401;SDS011;68857;47.916;106.940;2023-08-21T04:37:55;10.43;;;5.00;;
79401;SDS011;68857;47.916;106.940;2023-08-21T04:40:23;9.25;;;5.35;;
79401;SDS011;68857;47.916;106.940;2023-08-21T04:42:50;9.40;;;3.88;;
79401;SDS011;68857;47.916;106.940;2023-08-21T04:45:17;8.02;;;4.25;;
79401;SDS011;68857;47.916;106.940;2023-08-21T04:47:43;9.82;;;5.03;;
79401;SDS011;68857;47.916;106.940;2023-08-21T04:50:11;9.05;;;4.07;;
79401;SDS011;68857;47.916;106.940;2023-08-21T04:52:38;10.07;;;4.88;;
79401;SDS011;68857;47.916;106.940;2023-08-21T04:55:05;6.80;;;3.95;;
79401;SDS011;68857;47.916;106.940;2023-08-21T04:57:32;9.25;;;4.10;;
79401;SDS011;68857;47.916;106.940;2023-08-21T04:59:59;11.07;;;4.43;;
79401;SDS011;68857;47.916;106.940;2023-08-21T05:02:25;9.00;;;3.10;;
79401;SDS011;68857;47.916;106.940;2023-08-21T05:04:52;10.85;;;4.38;;
79401;SDS011;68857;47.916;106.940;2023-08-21T05:07:19;9.93;;;4.28;;
79401;SDS011;68857;47.916;106.940;2023-08-21T05:09:46;9.18;;;3.05;;
79401;SDS011;68857;47.916;106.940;2023-08-21T05:12:12;9.07;;;3.78;;
79401;SDS011;68857;47.916;106.940;2023-08-21T05:14:39;9.05;;;6.57;;
79401;SDS011;68857;47.916;106.940;2023-08-21T05:17:06;7.30;;;2.88;;
79401;SDS011;68857;47.916;106.940;2023-08-21T05:19:33;7.50;;;4.35;;
79401;SDS011;68857;47.916;106.940;2023-08-21T05:21:59;7.18;;;3.35;;
79401;SDS011;68857;47.916;106.940;2023-08-21T05:24:26;7.13;;;2.60;;
79401;SDS011;68857;47.916;106.940;2023-08-21T05:26:54;8.70;;;3.38;;
79401;SDS011;68857;47.916;106.940;2023-08-21T05:29:21;5.53;;;2.65;;
79401;SDS011;68857;47.916;106.940;2023-08-21T05:31:49;7.53;;;3.15;;
79401;SDS011;68857;47.916;106.940;2023-08-21T05:34:16;4.82;;;2.60;;
79401;SDS011;68857;47.916;106.940;2023-08-21T05:36:42;6.90;;;3.10;;
79401;SDS011;68857;47.916;106.940;2023-08-21T05:39:09;8.32;;;3.10;;
79401;SDS011;68857;47.916;106.940;2023-08-21T05:41:36;6.82;;;3.47;;
79401;SDS011;68857;47.916;106.940;2023-08-21T05:44:02;5.82;;;5.22;;
79401;SDS011;68857;47.916;106.940;2023-08-21T05:46:29;5.78;;;3.38;;
79401;SDS011;68857;47.916;106.940;2023-08-21T05:48:55;4.93;;;2.38;;
79401;SDS011;68857;47.916;106.940;2023-08-21T05:51:22;3.08;;;2.78;;
79401;SDS011;68857;47.916;106.940;2023-08-21T05:53:49;4.45;;;3.08;;
79401;SDS011;68857;47.916;106.940;2023-08-21T05:56:15;4.25;;;2.33;;
79401;SDS011;68857;47.916;106.940;2023-08-21T05:58:41;3.03;;;1.75;;
79401;SDS011;68857;47.916;106.940;2023-08-21T06:01:08;4.07;;;2.85;;
79401;SDS011;68857;47.916;106.940;2023-08-21T06:03:34;2.90;;;1.73;;
79401;SDS011;68857;47.916;106.940;2023-08-21T06:06:01;3.50;;;2.03;;
79401;SDS011;68857;47.916;106.940;2023-08-21T06:08:28;2.30;;;1.73;;
79401;SDS011;68857;47.916;106.940;2023-08-21T06:10:54;5.13;;;2.10;;
79401;SDS011;68857;47.916;106.940;2023-08-21T06:13:21;3.15;;;2.15;;
79401;SDS011;68857;47.916;106.940;2023-08-21T06:15:47;3.17;;;2.38;;
79401;SDS011;68857;47.916;106.940;2023-08-21T06:18:14;5.00;;;3.30;;
79401;SDS011;68857;47.916;106.940;2023-08-21T06:20:44;3.17;;;1.83;;
79401;SDS011;68857;47.916;106.940;2023-08-21T06:23:11;2.35;;;1.83;;
79401;SDS011;68857;47.916;106.940;2023-08-21T06:25:38;4.85;;;2.40;;
79401;SDS011;68857;47.916;106.940;2023-08-21T06:28:05;2.25;;;1.95;;
79401;SDS011;68857;47.916;106.940;2023-08-21T06:30:31;2.03;;;1.55;;
79401;SDS011;68857;47.916;106.940;2023-08-21T06:32:58;2.28;;;1.80;;
79401;SDS011;68857;47.916;106.940;2023-08-21T06:35:24;2.42;;;2.22;;
79401;SDS011;68857;47.916;106.940;2023-08-21T06:37:51;2.83;;;1.65;;
79401;SDS011;68857;47.916;106.940;2023-08-21T06:40:19;4.45;;;2.50;;
79401;SDS011;68857;47.916;106.940;2023-08-21T06:42:46;3.97;;;2.08;;
79401;SDS011;68857;47.916;106.940;2023-08-21T06:45:16;1.92;;;1.40;;
79401;SDS011;68857;47.916;106.940;2023-08-21T06:47:43;4.35;;;2.38;;
79401;SDS011;68857;47.916;106.940;2023-08-21T06:50:10;2.50;;;2.30;;
79401;SDS011;68857;47.916;106.940;2023-08-21T06:52:36;6.93;;;2.22;;
79401;SDS011;68857;47.916;106.940;2023-08-21T06:55:03;3.65;;;3.20;;
79401;SDS011;68857;47.916;106.940;2023-08-21T06:57:29;2.33;;;1.88;;
79401;SDS011;68857;47.916;106.940;2023-08-21T06:59:56;3.47;;;1.88;;
79401;SDS011;68857;47.916;106.940;2023-08-21T07:02:23;2.75;;;1.90;;
79401;SDS011;68857;47.916;106.940;2023-08-21T07:04:49;2.15;;;1.50;;
79401;SDS011;68857;47.916;106.940;2023-08-21T07:07:16;2.78;;;1.67;;
79401;SDS011;68857;47.916;106.940;2023-08-21T07:09:43;1.50;;;1.20;;
79401;SDS011;68857;47.916;106.940;2023-08-21T07:12:10;2.97;;;1.95;;
79401;SDS011;68857;47.916;106.940;2023-08-21T07:14:36;2.65;;;1.38;;
79401;SDS011;68857;47.916;106.940;2023-08-21T07:17:03;3.30;;;2.08;;
79401;SDS011;68857;47.916;106.940;2023-08-21T07:19:30;2.05;;;1.58;;
79401;SDS011;68857;47.916;106.940;2023-08-21T07:21:57;2.22;;;1.63;;
79401;SDS011;68857;47.916;106.940;2023-08-21T07:24:24;2.33;;;1.92;;
79401;SDS011;68857;47.916;106.940;2023-08-21T07:26:50;4.60;;;1.92;;
79401;SDS011;68857;47.916;106.940;2023-08-21T07:29:17;3.13;;;1.80;;
79401;SDS011;68857;47.916;106.940;2023-08-21T07:31:43;3.20;;;1.58;;
79401;SDS011;68857;47.916;106.940;2023-08-21T07:34:10;3.53;;;1.52;;
79401;SDS011;68857;47.916;106.940;2023-08-21T07:36:36;2.60;;;1.77;;
79401;SDS011;68857;47.916;106.940;2023-08-21T07:39:03;4.35;;;1.40;;
79401;SDS011;68857;47.916;106.940;2023-08-21T07:41:29;1.73;;;1.45;;
79401;SDS011;68857;47.916;106.940;2023-08-21T07:43:56;2.42;;;1.13;;
79401;SDS011;68857;47.916;106.940;2023-08-21T07:46:23;2.53;;;1.98;;
79401;SDS011;68857;47.916;106.940;2023-08-21T07:48:49;4.50;;;3.08;;
79401;SDS011;68857;47.916;106.940;2023-08-21T07:51:16;3.25;;;1.67;;
79401;SDS011;68857;47.916;106.940;2023-08-21T07:53:42;4.18;;;2.20;;
79401;SDS011;68857;47.916;106.940;2023-08-21T07:56:09;4.80;;;1.42;;
79401;SDS011;68857;47.916;106.940;2023-08-21T07:58:36;3.63;;;1.80;;
79401;SDS011;68857;47.916;106.940;2023-08-21T08:01:03;3.28;;;1.67;;
79401;SDS011;68857;47.916;106.940;2023-08-21T08:03:32;8.60;;;1.75;;
79401;SDS011;68857;47.916;106.940;2023-08-21T08:05:58;2.45;;;1.45;;
79401;SDS011;68857;47.916;106.940;2023-08-21T08:08:25;5.55;;;1.85;;
79401;SDS011;68857;47.916;106.940;2023-08-21T08:10:52;2.45;;;1.60;;
79401;SDS011;68857;47.916;106.940;2023-08-21T08:13:19;3.10;;;1.83;;
79401;SDS011;68857;47.916;106.940;2023-08-21T08:15:45;3.47;;;1.35;;
79401;SDS011;68857;47.916;106.940;2023-08-21T08:18:12;4.22;;;1.23;;
79401;SDS011;68857;47.916;106.940;2023-08-21T08:20:39;2.75;;;1.77;;
79401;SDS011;68857;47.916;106.940;2023-08-21T08:23:06;5.28;;;3.22;;
79401;SDS011;68857;47.916;106.940;2023-08-21T08:25:32;4.07;;;2.20;;
79401;SDS011;68857;47.916;106.940;2023-08-21T08:27:59;2.85;;;1.73;;
79401;SDS011;68857;47.916;106.940;2023-08-21T08:30:26;6.10;;;2.45;;
79401;SDS011;68857;47.916;106.940;2023-08-21T08:32:52;6.07;;;2.22;;
79401;SDS011;68857;47.916;106.940;2023-08-21T08:35:19;5.03;;;1.92;;
79401;SDS011;68857;47.916;106.940;2023-08-21T08:37:46;5.50;;;3.40;;
79401;SDS011;68857;47.916;106.940;2023-08-21T08:40:13;3.67;;;2.60;;
79401;SDS011;68857;47.916;106.940;2023-08-21T08:42:39;3.75;;;2.17;;
79401;SDS011;68857;47.916;106.940;2023-08-21T08:45:06;4.70;;;2.25;;
79401;SDS011;68857;47.916;106.940;2023-08-21T08:47:33;4.95;;;2.13;;
79401;SDS011;68857;47.916;106.940;2023-08-21T08:50:03;4.57;;;2.05;;
79401;SDS011;68857;47.916;106.940;2023-08-21T08:52:33;4.68;;;1.90;;
79401;SDS011;68857;47.916;106.940;2023-08-21T08:55:00;3.30;;;1.95;;
79401;SDS011;68857;47.916;106.940;2023-08-21T08:57:28;4.03;;;1.92;;
79401;SDS011;68857;47.916;106.940;2023-08-21T08:59:55;4.05;;;2.22;;
79401;SDS011;68857;47.916;106.940;2023-08-21T09:02:23;3.00;;;1.60;;
79401;SDS011;68857;47.916;106.940;2023-08-21T09:04:51;3.65;;;2.60;;
79401;SDS011;68857;47.916;106.940;2023-08-21T09:07:17;3.20;;;1.52;;
79401;SDS011;68857;47.916;106.940;2023-08-21T09:09:45;2.20;;;1.55;;
79401;SDS011;68857;47.916;106.940;2023-08-21T09:12:15;3.22;;;2.10;;
79401;SDS011;68857;47.916;106.940;2023-08-21T09:14:42;2.72;;;2.05;;
79401;SDS011;68857;47.916;106.940;2023-08-21T09:17:09;3.00;;;1.70;;
79401;SDS011;68857;47.916;106.940;2023-08-21T09:19:35;2.72;;;1.42;;
79401;SDS011;68857;47.916;106.940;2023-08-21T09:22:12;2.55;;;2.08;;
79401;SDS011;68857;47.916;106.940;2023-08-21T09:24:39;4.05;;;1.45;;
79401;SDS011;68857;47.916;106.940;2023-08-21T09:27:13;1.77;;;1.65;;
79401;SDS011;68857;47.916;106.940;2023-08-21T09:29:40;3.08;;;1.80;;
79401;SDS011;68857;47.916;106.940;2023-08-21T09:32:06;3.75;;;2.05;;
79401;SDS011;68857;47.916;106.940;2023-08-21T09:34:33;2.67;;;1.40;;
79401;SDS011;68857;47.916;106.940;2023-08-21T09:37:01;3.63;;;1.30;;
79401;SDS011;68857;47.916;106.940;2023-08-21T09:39:36;3.13;;;1.20;;
79401;SDS011;68857;47.916;106.940;2023-08-21T09:42:06;2.55;;;2.00;;
79401;SDS011;68857;47.916;106.940;2023-08-21T09:44:37;2.28;;;1.52;;
79401;SDS011;68857;47.916;106.940;2023-08-21T09:47:07;2.20;;;1.40;;
79401;SDS011;68857;47.916;106.940;2023-08-21T09:49:35;2.58;;;1.20;;
79401;SDS011;68857;47.916;106.940;2023-08-21T09:52:04;5.00;;;3.10;;
79401;SDS011;68857;47.916;106.940;2023-08-21T09:54:31;42.85;;;23.50;;
79401;SDS011;68857;47.916;106.940;2023-08-21T09:57:00;69.20;;;34.30;;
79401;SDS011;68857;47.916;106.940;2023-08-21T09:59:27;76.00;;;34.05;;
79401;SDS011;68857;47.916;106.940;2023-08-21T10:01:54;83.60;;;34.05;;
79401;SDS011;68857;47.916;106.940;2023-08-21T10:04:21;69.43;;;27.20;;
79401;SDS011;68857;47.916;106.940;2023-08-21T10:06:48;54.50;;;24.20;;
79401;SDS011;68857;47.916;106.940;2023-08-21T10:09:17;42.30;;;20.23;;
79401;SDS011;68857;47.916;106.940;2023-08-21T10:11:44;33.85;;;14.85;;
79401;SDS011;68857;47.916;106.940;2023-08-21T10:14:11;30.38;;;13.30;;
79401;SDS011;68857;47.916;106.940;2023-08-21T10:16:37;32.58;;;12.48;;
79401;SDS011;68857;47.916;106.940;2023-08-21T10:19:04;24.08;;;11.45;;
79401;SDS011;68857;47.916;106.940;2023-08-21T10:21:34;27.38;;;10.95;;
79401;SDS011;68857;47.916;106.940;2023-08-21T10:24:01;20.65;;;11.05;;
79401;SDS011;68857;47.916;106.940;2023-08-21T10:26:28;27.08;;;12.40;;
79401;SDS011;68857;47.916;106.940;2023-08-21T10:28:56;27.58;;;10.68;;
79401;SDS011;68857;47.916;106.940;2023-08-21T10:33:54;29.25;;;12.32;;
79401;SDS011;68857;47.916;106.940;2023-08-21T10:36:40;26.02;;;11.98;;
79401;SDS011;68857;47.916;106.940;2023-08-21T10:39:26;20.90;;;9.60;;
79401;SDS011;68857;47.916;106.940;2023-08-21T10:42:08;26.73;;;10.95;;
79401;SDS011;68857;47.916;106.940;2023-08-21T10:44:52;32.03;;;13.57;;
79401;SDS011;68857;47.916;106.940;2023-08-21T10:52:24;28.02;;;10.63;;
79401;SDS011;68857;47.916;106.940;2023-08-21T10:54:51;24.00;;;11.93;;
79401;SDS011;68857;47.916;106.940;2023-08-21T10:57:18;23.33;;;10.38;;
79401;SDS011;68857;47.916;106.940;2023-08-21T10:59:51;24.02;;;9.43;;
79401;SDS011;68857;47.916;106.940;2023-08-21T11:02:18;24.48;;;10.07;;
79401;SDS011;68857;47.916;106.940;2023-08-21T11:04:45;24.08;;;9.35;;
79401;SDS011;68857;47.916;106.940;2023-08-21T11:07:12;25.27;;;9.95;;
79401;SDS011;68857;47.916;106.940;2023-08-21T11:09:38;22.48;;;9.60;;
79401;SDS011;68857;47.916;106.940;2023-08-21T11:12:09;21.83;;;9.10;;
79401;SDS011;68857;47.916;106.940;2023-08-21T11:14:35;22.48;;;10.10;;
79401;SDS011;68857;47.916;106.940;2023-08-21T11:17:03;17.40;;;8.38;;
79401;SDS011;68857;47.916;106.940;2023-08-21T11:19:30;18.40;;;8.27;;
79401;SDS011;68857;47.916;106.940;2023-08-21T11:21:57;20.33;;;8.88;;
79401;SDS011;68857;47.916;106.940;2023-08-21T11:27:04;19.05;;;6.90;;
79401;SDS011;68857;47.916;106.940;2023-08-21T11:29:38;17.08;;;7.22;;
79401;SDS011;68857;47.916;106.940;2023-08-21T11:32:23;15.57;;;6.70;;
79401;SDS011;68857;47.916;106.940;2023-08-21T11:34:51;18.83;;;6.68;;
79401;SDS011;68857;47.916;106.940;2023-08-21T11:37:18;14.00;;;6.57;;
79401;SDS011;68857;47.916;106.940;2023-08-21T11:39:47;15.75;;;6.15;;
79401;SDS011;68857;47.916;106.940;2023-08-21T11:42:13;18.48;;;5.30;;
79401;SDS011;68857;47.916;106.940;2023-08-21T11:47:13;10.90;;;4.93;;
79401;SDS011;68857;47.916;106.940;2023-08-21T11:49:40;11.55;;;4.82;;
79401;SDS011;68857;47.916;106.940;2023-08-21T11:52:08;10.02;;;4.65;;
79401;SDS011;68857;47.916;106.940;2023-08-21T11:54:35;10.40;;;5.00;;
79401;SDS011;68857;47.916;106.940;2023-08-21T11:57:05;11.23;;;5.10;;
79401;SDS011;68857;47.916;106.940;2023-08-21T11:59:32;10.63;;;5.45;;
79401;SDS011;68857;47.916;106.940;2023-08-21T12:01:59;8.90;;;4.85;;
79401;SDS011;68857;47.916;106.940;2023-08-21T12:04:26;7.13;;;4.15;;
79401;SDS011;68857;47.916;106.940;2023-08-21T12:06:53;9.43;;;3.95;;
79401;SDS011;68857;47.916;106.940;2023-08-21T12:09:20;8.20;;;3.70;;
79401;SDS011;68857;47.916;106.940;2023-08-21T12:11:47;8.52;;;3.88;;
79401;SDS011;68857;47.916;106.940;2023-08-21T12:14:14;8.73;;;4.13;;
79401;SDS011;68857;47.916;106.940;2023-08-21T12:16:42;8.38;;;3.20;;
79401;SDS011;68857;47.916;106.940;2023-08-21T12:19:09;9.35;;;3.47;;
79401;SDS011;68857;47.916;106.940;2023-08-21T12:21:37;7.22;;;3.72;;
79401;SDS011;68857;47.916;106.940;2023-08-21T12:24:04;7.10;;;3.63;;
79401;SDS011;68857;47.916;106.940;2023-08-21T12:26:32;6.97;;;3.28;;
79401;SDS011;68857;47.916;106.940;2023-08-21T12:29:00;7.45;;;3.67;;
79401;SDS011;68857;47.916;106.940;2023-08-21T12:31:28;6.97;;;3.35;;
79401;SDS011;68857;47.916;106.940;2023-08-21T12:33:55;7.32;;;3.53;;
79401;SDS011;68857;47.916;106.940;2023-08-21T12:36:22;6.93;;;3.17;;
79401;SDS011;68857;47.916;106.940;2023-08-21T12:38:49;8.18;;;4.07;;
79401;SDS011;68857;47.916;106.940;2023-08-21T12:41:15;5.70;;;3.50;;
79401;SDS011;68857;47.916;106.940;2023-08-21T12:43:42;6.57;;;3.22;;
79401;SDS011;68857;47.916;106.940;2023-08-21T12:46:09;7.13;;;3.25;;
79401;SDS011;68857;47.916;106.940;2023-08-21T12:48:35;7.53;;;3.10;;
79401;SDS011;68857;47.916;106.940;2023-08-21T12:51:02;5.50;;;2.42;;
79401;SDS011;68857;47.916;106.940;2023-08-21T12:53:29;5.28;;;2.67;;
79401;SDS011;68857;47.916;106.940;2023-08-21T12:55:55;5.80;;;3.05;;
79401;SDS011;68857;47.916;106.940;2023-08-21T12:58:22;6.82;;;3.15;;
79401;SDS011;68857;47.916;106.940;2023-08-21T13:00:48;5.13;;;3.28;;
79401;SDS011;68857;47.916;106.940;2023-08-21T13:03:15;6.45;;;2.95;;
79401;SDS011;68857;47.916;106.940;2023-08-21T13:05:41;4.63;;;2.00;;
79401;SDS011;68857;47.916;106.940;2023-08-21T13:08:08;4.40;;;2.17;;
79401;SDS011;68857;47.916;106.940;2023-08-21T13:10:35;4.93;;;1.95;;
79401;SDS011;68857;47.916;106.940;2023-08-21T13:13:01;5.50;;;2.58;;
79401;SDS011;68857;47.916;106.940;2023-08-21T13:15:28;4.97;;;2.53;;
79401;SDS011;68857;47.916;106.940;2023-08-21T13:17:56;4.28;;;2.47;;
79401;SDS011;68857;47.916;106.940;2023-08-21T13:20:23;4.25;;;2.10;;
79401;SDS011;68857;47.916;106.940;2023-08-21T13:22:50;5.50;;;3.17;;
79401;SDS011;68857;47.916;106.940;2023-08-21T13:25:23;5.55;;;2.47;;
79401;SDS011;68857;47.916;106.940;2023-08-21T13:27:50;4.60;;;2.63;;
79401;SDS011;68857;47.916;106.940;2023-08-21T13:30:17;6.45;;;2.60;;
79401;SDS011;68857;47.916;106.940;2023-08-21T13:32:44;4.47;;;2.92;;
79401;SDS011;68857;47.916;106.940;2023-08-21T13:35:10;3.63;;;2.22;;
79401;SDS011;68857;47.916;106.940;2023-08-21T13:37:38;5.18;;;2.25;;
79401;SDS011;68857;47.916;106.940;2023-08-21T13:40:05;4.38;;;2.10;;
79401;SDS011;68857;47.916;106.940;2023-08-21T13:42:39;3.53;;;1.88;;
79401;SDS011;68857;47.916;106.940;2023-08-21T13:45:09;3.53;;;2.20;;
79401;SDS011;68857;47.916;106.940;2023-08-21T13:47:40;4.05;;;2.35;;
79401;SDS011;68857;47.916;106.940;2023-08-21T13:50:08;4.28;;;2.50;;
79401;SDS011;68857;47.916;106.940;2023-08-21T13:52:35;3.80;;;2.20;;
79401;SDS011;68857;47.916;106.940;2023-08-21T13:55:05;3.38;;;1.73;;
79401;SDS011;68857;47.916;106.940;2023-08-21T13:57:32;4.60;;;2.08;;
79401;SDS011;68857;47.916;106.940;2023-08-21T13:59:58;3.13;;;1.60;;
79401;SDS011;68857;47.916;106.940;2023-08-21T14:02:25;3.75;;;1.88;;
79401;SDS011;68857;47.916;106.940;2023-08-21T14:04:52;3.45;;;1.77;;
79401;SDS011;68857;47.916;106.940;2023-08-21T14:07:18;4.85;;;2.00;;
79401;SDS011;68857;47.916;106.940;2023-08-21T14:09:45;3.28;;;2.40;;
79401;SDS011;68857;47.916;106.940;2023-08-21T14:12:11;3.53;;;1.60;;
79401;SDS011;68857;47.916;106.940;2023-08-21T14:14:38;2.67;;;1.38;;
79401;SDS011;68857;47.916;106.940;2023-08-21T14:17:05;2.47;;;1.70;;
79401;SDS011;68857;47.916;106.940;2023-08-21T14:19:32;5.03;;;2.22;;
79401;SDS011;68857;47.916;106.940;2023-08-21T14:21:59;3.03;;;1.75;;
79401;SDS011;68857;47.916;106.940;2023-08-21T14:24:26;2.63;;;1.52;;
79401;SDS011;68857;47.916;106.940;2023-08-21T14:26:52;6.40;;;1.83;;
79401;SDS011;68857;47.916;106.940;2023-08-21T14:29:19;2.85;;;2.30;;
79401;SDS011;68857;47.916;106.940;2023-08-21T14:31:46;3.25;;;1.63;;
79401;SDS011;68857;47.916;106.940;2023-08-21T14:34:14;6.15;;;1.92;;
79401;SDS011;68857;47.916;106.940;2023-08-21T14:36:41;6.43;;;2.60;;
79401;SDS011;68857;47.916;106.940;2023-08-21T14:39:08;4.22;;;2.13;;